createdAt,value
2023-05-03T00:01:39.384Z,6.70
2023-05-03T00:04:12.157Z,6.70
2023-05-03T00:06:45.274Z,6.80
2023-05-03T00:09:17.402Z,6.80
2023-05-03T00:11:50.364Z,6.60
2023-05-03T00:14:22.581Z,6.50
2023-05-03T00:16:54.754Z,6.50
2023-05-03T00:19:33.813Z,6.40
2023-05-03T00:22:07.263Z,6.40
2023-05-03T00:24:39.336Z,6.50
2023-05-03T00:27:11.362Z,6.50
2023-05-03T00:29:43.381Z,6.50
2023-05-03T00:32:16.091Z,6.40
2023-05-03T00:34:53.147Z,6.50
2023-05-03T00:37:25.973Z,6.50
2023-05-03T00:39:58.168Z,6.30
2023-05-03T00:42:30.285Z,6.20
2023-05-03T00:45:05.272Z,6.20
2023-05-03T00:47:37.872Z,6.40
2023-05-03T00:50:12.051Z,6.50
2023-05-03T00:52:44.786Z,6.60
2023-05-03T00:55:17.642Z,6.60
2023-05-03T00:57:49.738Z,6.50
2023-05-03T01:00:22.456Z,6.50
2023-05-03T01:02:55.010Z,6.50
2023-05-03T01:05:32.611Z,6.40
2023-05-03T01:08:15.340Z,6.20
2023-05-03T01:10:58.163Z,6.20
2023-05-03T01:13:44.202Z,6.10
2023-05-03T01:16:37.007Z,6.10
2023-05-03T01:19:47.936Z,6.10
2023-05-03T01:22:44.354Z,6.20
2023-05-03T01:25:16.666Z,6.30
2023-05-03T01:27:48.864Z,6.40
2023-05-03T01:30:24.289Z,6.50
2023-05-03T01:33:16.593Z,6.50
2023-05-03T01:36:05.813Z,6.50
2023-05-03T01:38:38.491Z,6.60
2023-05-03T01:41:12.652Z,6.70
2023-05-03T01:43:46.008Z,6.70
2023-05-03T01:46:19.426Z,6.80
2023-05-03T01:48:51.572Z,6.80
2023-05-03T01:51:23.747Z,6.70
2023-05-03T01:53:55.779Z,6.70
2023-05-03T01:56:28.202Z,6.70
2023-05-03T01:59:00.758Z,6.60
2023-05-03T02:01:33.599Z,6.70
2023-05-03T02:04:06.055Z,6.80
2023-05-03T02:06:38.534Z,6.80
2023-05-03T02:09:10.780Z,6.90
2023-05-03T02:11:44.068Z,6.90
2023-05-03T02:14:16.224Z,7.00
2023-05-03T02:16:48.787Z,6.90
2023-05-03T02:19:21.072Z,7.00
2023-05-03T02:21:53.211Z,7.10
2023-05-03T02:24:25.316Z,7.00
2023-05-03T02:26:58.033Z,7.10
2023-05-03T02:29:31.400Z,7.10
2023-05-03T02:32:05.969Z,7.10
2023-05-03T02:34:39.630Z,7.10
2023-05-03T02:37:13.931Z,7.20
2023-05-03T02:39:46.531Z,7.20
2023-05-03T02:42:20.867Z,7.10
2023-05-03T02:44:54.045Z,7.10
2023-05-03T02:47:26.504Z,7.10
2023-05-03T02:49:58.812Z,7.10
2023-05-03T02:52:31.294Z,7.20
2023-05-03T02:55:05.794Z,7.20
2023-05-03T02:57:39.041Z,7.30
2023-05-03T03:00:15.485Z,7.20
2023-05-03T03:02:48.561Z,7.20
2023-05-03T03:05:21.312Z,7.20
2023-05-03T03:07:55.397Z,7.10
2023-05-03T03:10:29.068Z,7.10
2023-05-03T03:13:01.251Z,6.90
2023-05-03T03:15:39.878Z,6.90
2023-05-03T03:18:12.051Z,6.90
2023-05-03T03:20:44.193Z,6.80
2023-05-03T03:23:16.392Z,6.80
2023-05-03T03:25:48.500Z,6.80
2023-05-03T03:28:21.665Z,6.90
2023-05-03T03:30:54.204Z,6.90
2023-05-03T03:33:29.449Z,6.80
2023-05-03T03:36:10.328Z,6.80
2023-05-03T03:38:46.229Z,7.00
2023-05-03T03:41:19.729Z,7.00
2023-05-03T03:43:52.669Z,7.00
2023-05-03T03:46:25.996Z,7.00
2023-05-03T03:49:01.018Z,7.10
2023-05-03T03:51:35.480Z,7.20
2023-05-03T03:54:08.042Z,7.10
2023-05-03T03:56:43.504Z,7.10
2023-05-03T03:59:15.750Z,7.10
2023-05-03T04:01:49.216Z,7.20
2023-05-03T04:04:21.753Z,7.30
2023-05-03T04:06:55.166Z,7.30
2023-05-03T04:09:30.518Z,7.30
2023-05-03T04:12:03.559Z,7.40
2023-05-03T04:14:36.559Z,7.40
2023-05-03T04:17:08.785Z,7.40
2023-05-03T04:19:41.621Z,7.40
2023-05-03T04:22:14.449Z,7.50
2023-05-03T04:24:46.536Z,7.50
2023-05-03T04:27:19.012Z,7.50
2023-05-03T04:29:51.214Z,7.50
2023-05-03T04:32:24.464Z,7.60
2023-05-03T04:35:00.575Z,7.60
2023-05-03T04:37:33.228Z,7.50
2023-05-03T04:40:09.579Z,7.60
2023-05-03T04:42:45.140Z,7.60
2023-05-03T04:45:18.915Z,7.60
2023-05-03T04:47:51.471Z,7.60
2023-05-03T04:50:24.137Z,7.70
2023-05-03T04:52:56.695Z,7.80
2023-05-03T04:55:30.914Z,7.90
2023-05-03T04:58:04.531Z,7.90
2023-05-03T05:00:36.636Z,8.00
2023-05-03T05:03:14.778Z,8.10
2023-05-03T05:05:47.340Z,8.00
2023-05-03T05:08:21.178Z,8.10
2023-05-03T05:10:58.557Z,8.10
2023-05-03T05:13:39.567Z,8.20
2023-05-03T05:16:11.641Z,8.20
2023-05-03T05:18:48.615Z,8.30
2023-05-03T05:21:31.680Z,8.40
2023-05-03T05:24:09.599Z,8.60
2023-05-03T05:26:46.576Z,8.60
2023-05-03T05:29:20.536Z,8.70
2023-05-03T05:31:53.319Z,8.70
2023-05-03T05:34:27.169Z,8.70
2023-05-03T05:37:00.546Z,8.80
2023-05-03T05:39:32.672Z,8.60
2023-05-03T05:42:05.222Z,8.60
2023-05-03T05:44:38.217Z,8.60
2023-05-03T05:47:11.292Z,8.70
2023-05-03T05:49:44.368Z,8.70
2023-05-03T05:52:17.590Z,8.80
2023-05-03T05:54:49.788Z,8.90
2023-05-03T05:57:22.617Z,9.00
2023-05-03T05:59:54.845Z,9.20
2023-05-03T06:02:27.728Z,9.20
2023-05-03T06:05:01.945Z,9.30
2023-05-03T06:07:35.036Z,9.40
2023-05-03T06:10:08.100Z,9.40
2023-05-03T06:12:41.929Z,9.40
2023-05-03T06:15:19.768Z,9.40
2023-05-03T06:17:52.429Z,9.40
2023-05-03T06:20:24.708Z,9.40
2023-05-03T06:22:57.940Z,9.50
2023-05-03T06:25:30.314Z,9.50
2023-05-03T06:28:02.465Z,9.50
2023-05-03T06:30:37.591Z,9.50
2023-05-03T06:33:15.154Z,9.60
2023-05-03T06:35:49.015Z,9.50
2023-05-03T06:38:23.650Z,9.50
2023-05-03T06:40:55.823Z,9.40
2023-05-03T06:43:27.918Z,9.50
2023-05-03T06:46:07.848Z,9.50
2023-05-03T06:48:40.096Z,9.50
2023-05-03T06:51:12.500Z,9.50
2023-05-03T06:53:46.371Z,9.50
2023-05-03T06:56:18.371Z,9.50
2023-05-03T06:58:50.842Z,9.50
2023-05-03T07:01:23.490Z,9.60
2023-05-03T07:03:56.088Z,9.70
2023-05-03T07:06:28.284Z,9.50
2023-05-03T07:09:00.536Z,9.50
2023-05-03T07:11:34.721Z,9.60
2023-05-03T07:14:07.721Z,9.70
2023-05-03T07:16:39.871Z,9.70
2023-05-03T07:19:12.035Z,9.70
2023-05-03T07:21:44.176Z,9.70
2023-05-03T07:24:16.412Z,9.70
2023-05-03T07:26:49.266Z,9.60
2023-05-03T07:29:21.814Z,9.50
2023-05-03T07:31:54.047Z,9.50
2023-05-03T07:34:26.955Z,9.60
2023-05-03T07:36:59.061Z,9.60
2023-05-03T07:39:31.273Z,9.70
2023-05-03T07:42:03.609Z,9.80
2023-05-03T07:44:35.660Z,9.80
2023-05-03T07:47:08.179Z,9.90
2023-05-03T07:49:40.441Z,10.00
2023-05-03T07:52:12.500Z,10.00
2023-05-03T07:54:46.212Z,10.00
2023-05-03T07:57:18.457Z,10.00
2023-05-03T07:59:50.813Z,10.10
2023-05-03T08:02:23.025Z,10.20
2023-05-03T08:04:55.529Z,10.40
2023-05-03T08:07:28.918Z,10.60
2023-05-03T08:10:02.939Z,10.70
2023-05-03T08:12:36.475Z,10.70
2023-05-03T08:15:09.082Z,10.90
2023-05-03T08:17:45.147Z,10.90
2023-05-03T08:20:17.223Z,10.70
2023-05-03T08:22:49.937Z,10.80
2023-05-03T08:25:23.124Z,10.90
2023-05-03T08:27:55.802Z,11.00
2023-05-03T08:30:27.980Z,11.00
2023-05-03T08:33:00.158Z,11.10
2023-05-03T08:35:32.295Z,11.10
2023-05-03T08:38:05.355Z,11.20
2023-05-03T08:40:39.909Z,11.30
2023-05-03T08:43:15.199Z,11.20
2023-05-03T08:45:47.730Z,11.30
2023-05-03T08:48:19.924Z,11.50
2023-05-03T08:50:54.025Z,11.60
2023-05-03T08:53:26.692Z,11.70
2023-05-03T08:55:58.794Z,11.90
2023-05-03T08:58:35.424Z,12.00
2023-05-03T09:01:08.969Z,12.10
2023-05-03T09:03:49.764Z,12.10
2023-05-03T09:06:27.491Z,12.20
2023-05-03T09:09:00.282Z,12.20
2023-05-03T09:11:33.704Z,12.20
2023-05-03T09:14:21.511Z,12.30
2023-05-03T09:16:53.808Z,12.30
2023-05-03T09:19:26.433Z,12.50
2023-05-03T09:22:08.048Z,12.60
2023-05-03T09:24:40.189Z,12.70
2023-05-03T09:27:21.443Z,12.80
2023-05-03T09:29:54.749Z,12.80
2023-05-03T09:32:29.181Z,12.90
2023-05-03T09:35:10.639Z,13.00
2023-05-03T09:37:42.668Z,12.90
2023-05-03T09:40:18.559Z,12.90
2023-05-03T09:43:11.533Z,13.10
2023-05-03T09:45:43.786Z,13.20
2023-05-03T09:48:16.875Z,13.40
2023-05-03T09:50:49.391Z,13.50
2023-05-03T09:53:22.763Z,13.60
2023-05-03T09:55:56.274Z,13.80
2023-05-03T09:58:31.178Z,13.90
2023-05-03T10:01:03.373Z,14.10
2023-05-03T10:03:49.140Z,14.20
2023-05-03T10:06:49.159Z,14.30
2023-05-03T10:09:43.293Z,14.30
2023-05-03T10:12:17.842Z,14.40
2023-05-03T10:14:54.326Z,14.20
2023-05-03T10:17:46.129Z,14.30
2023-05-03T10:20:33.698Z,14.60
2023-05-03T10:23:06.481Z,14.70
2023-05-03T10:25:41.186Z,14.60
2023-05-03T10:28:15.284Z,14.30
2023-05-03T10:30:47.615Z,14.10
2023-05-03T10:33:19.906Z,14.00
2023-05-03T10:35:53.913Z,14.10
2023-05-03T10:38:27.749Z,14.30
2023-05-03T10:41:01.834Z,14.50
2023-05-03T10:43:33.879Z,14.40
2023-05-03T10:46:08.932Z,14.30
2023-05-03T10:48:42.608Z,14.20
2023-05-03T10:51:33.283Z,14.10
2023-05-03T10:54:05.397Z,14.00
2023-05-03T10:56:55.222Z,14.00
2023-05-03T10:59:47.842Z,14.00
2023-05-03T11:02:27.563Z,14.10
2023-05-03T11:05:05.624Z,14.40
2023-05-03T11:07:38.087Z,15.20
2023-05-03T11:10:20.198Z,15.80
2023-05-03T11:12:52.536Z,16.40
2023-05-03T11:15:24.972Z,16.90
2023-05-03T11:17:57.423Z,17.00
2023-05-03T11:20:30.229Z,17.30
2023-05-03T11:23:02.978Z,17.40
2023-05-03T11:25:35.741Z,17.70
2023-05-03T11:28:07.832Z,18.00
2023-05-03T11:30:39.907Z,18.30
2023-05-03T11:33:12.227Z,18.50
2023-05-03T11:35:44.360Z,18.60
2023-05-03T11:38:16.811Z,18.70
2023-05-03T11:40:49.057Z,18.70
2023-05-03T11:43:21.293Z,18.80
2023-05-03T11:45:57.336Z,18.90
2023-05-03T11:48:32.541Z,19.20
2023-05-03T11:51:11.199Z,19.50
2023-05-03T11:53:44.116Z,19.70
2023-05-03T11:56:19.009Z,19.40
2023-05-03T11:58:57.628Z,19.50
2023-05-03T12:01:30.463Z,20.00
2023-05-03T12:04:05.669Z,20.20
2023-05-03T12:06:38.948Z,19.90
2023-05-03T12:09:15.878Z,20.00
2023-05-03T12:11:51.372Z,20.10
2023-05-03T12:14:24.954Z,20.00
2023-05-03T12:17:00.314Z,20.10
2023-05-03T12:19:34.412Z,20.30
2023-05-03T12:22:25.800Z,20.40
2023-05-03T12:24:59.683Z,20.20
2023-05-03T12:27:32.866Z,20.30
2023-05-03T12:30:08.421Z,20.60
2023-05-03T12:32:44.401Z,19.80
2023-05-03T12:35:19.791Z,19.40
2023-05-03T12:37:55.809Z,19.30
2023-05-03T12:40:34.336Z,19.70
2023-05-03T12:43:07.530Z,20.00
2023-05-03T12:45:40.745Z,20.10
2023-05-03T12:48:13.524Z,20.30
2023-05-03T12:50:46.082Z,20.80
2023-05-03T12:53:18.681Z,20.90
2023-05-03T12:55:52.160Z,20.00
2023-05-03T12:58:49.866Z,19.50
2023-05-03T13:02:05.228Z,19.50
2023-05-03T13:06:48.092Z,20.50
2023-05-03T13:09:22.616Z,20.30
2023-05-03T13:12:02.582Z,20.20
2023-05-03T13:14:34.856Z,19.60
2023-05-03T13:17:07.678Z,19.40
2023-05-03T13:19:42.122Z,18.80
2023-05-03T13:22:15.156Z,19.30
2023-05-03T13:24:49.894Z,20.00
2023-05-03T13:27:22.012Z,20.20
2023-05-03T13:29:54.430Z,20.00
2023-05-03T13:32:27.494Z,20.20
2023-05-03T13:35:00.392Z,20.00
2023-05-03T13:37:32.796Z,20.00
2023-05-03T13:40:07.003Z,19.60
2023-05-03T13:42:39.690Z,19.40
2023-05-03T13:45:13.724Z,19.20
2023-05-03T13:50:25.529Z,19.20
2023-05-03T13:52:57.851Z,19.20
2023-05-03T13:55:30.164Z,19.30
2023-05-03T13:58:02.391Z,19.50
2023-05-03T14:00:36.390Z,19.50
2023-05-03T14:03:08.992Z,19.70
2023-05-03T14:05:41.601Z,20.00
2023-05-03T14:08:13.734Z,20.00
2023-05-03T14:10:46.389Z,19.90
2023-05-03T14:13:18.598Z,19.50
2023-05-03T14:15:51.206Z,19.40
2023-05-03T14:18:23.508Z,18.90
2023-05-03T14:20:57.234Z,18.70
2023-05-03T14:23:29.431Z,18.40
2023-05-03T14:26:02.747Z,18.30
2023-05-03T14:28:35.659Z,18.10
2023-05-03T14:31:08.029Z,18.20
2023-05-03T14:33:40.814Z,18.10
2023-05-03T14:36:13.591Z,17.80
2023-05-03T14:38:46.099Z,17.80
2023-05-03T14:41:18.166Z,17.60
2023-05-03T14:43:50.375Z,17.50
2023-05-03T14:46:22.463Z,17.70
2023-05-03T14:48:54.671Z,18.10
2023-05-03T14:51:28.030Z,18.60
2023-05-03T14:54:00.246Z,18.90
2023-05-03T14:56:32.809Z,19.20
2023-05-03T14:59:05.080Z,19.40
2023-05-03T15:01:37.847Z,19.40
2023-05-03T15:04:11.007Z,19.10
2023-05-03T15:06:43.164Z,18.90
2023-05-03T15:09:15.396Z,18.70
2023-05-03T15:11:47.469Z,18.60
2023-05-03T15:14:19.752Z,18.40
2023-05-03T15:16:51.936Z,18.30
2023-05-03T15:19:24.340Z,18.10
2023-05-03T15:21:56.401Z,18.00
2023-05-03T15:24:28.804Z,17.90
2023-05-03T15:27:03.500Z,17.80
2023-05-03T15:29:35.943Z,17.70
2023-05-03T15:32:08.286Z,17.70
2023-05-03T15:34:40.490Z,17.70
2023-05-03T15:37:13.435Z,17.60
2023-05-03T15:39:45.545Z,17.60
2023-05-03T15:42:17.569Z,17.70
2023-05-03T15:44:49.946Z,17.70
2023-05-03T15:47:22.990Z,17.70
2023-05-03T15:49:57.606Z,17.60
2023-05-03T15:52:30.103Z,17.60
2023-05-03T15:55:02.316Z,17.70
2023-05-03T15:57:34.548Z,17.80
2023-05-03T16:00:11.987Z,18.00
2023-05-03T16:02:44.377Z,17.90
2023-05-03T16:05:17.852Z,17.80
2023-05-03T16:07:51.070Z,17.80
2023-05-03T16:10:25.077Z,17.90
2023-05-03T16:12:57.346Z,18.10
2023-05-03T16:15:29.824Z,18.00
2023-05-03T16:18:02.102Z,18.20
2023-05-03T16:20:34.437Z,18.50
2023-05-03T16:23:06.548Z,18.60
2023-05-03T16:25:38.634Z,18.60
2023-05-03T16:28:11.232Z,18.70
2023-05-03T16:30:45.072Z,18.50
2023-05-03T16:33:18.383Z,18.40
2023-05-03T16:35:50.460Z,18.40
2023-05-03T16:38:22.912Z,18.30
2023-05-03T16:40:55.021Z,18.50
2023-05-03T16:43:27.345Z,18.60
2023-05-03T16:46:00.856Z,18.90
2023-05-03T16:48:35.069Z,18.90
2023-05-03T16:51:07.584Z,19.00
2023-05-03T16:53:39.612Z,18.90
2023-05-03T16:56:11.822Z,18.50
2023-05-03T16:58:43.909Z,18.20
2023-05-03T17:01:16.520Z,18.00
2023-05-03T17:03:48.906Z,17.90
2023-05-03T17:06:21.140Z,17.90
2023-05-03T17:08:53.482Z,18.00
2023-05-03T17:11:26.213Z,18.10
2023-05-03T17:14:00.858Z,18.10
2023-05-03T17:16:33.386Z,18.10
2023-05-03T17:19:05.823Z,17.90
2023-05-03T17:21:37.957Z,17.60
2023-05-03T17:24:10.067Z,17.30
2023-05-03T17:26:42.396Z,17.10
2023-05-03T17:29:15.394Z,16.90
2023-05-03T17:31:47.655Z,16.70
2023-05-03T17:34:20.696Z,16.50
2023-05-03T17:36:56.268Z,16.40
2023-05-03T17:39:28.635Z,16.40
2023-05-03T17:42:01.789Z,16.30
2023-05-03T17:44:33.943Z,16.20
2023-05-03T17:47:06.101Z,16.10
2023-05-03T17:49:38.456Z,16.00
2023-05-03T17:52:13.628Z,15.80
2023-05-03T17:54:46.462Z,15.80
2023-05-03T17:57:20.804Z,15.70
2023-05-03T17:59:52.869Z,15.50
2023-05-03T18:02:25.230Z,15.50
2023-05-03T18:05:00.385Z,15.40
2023-05-03T18:07:32.541Z,15.30
2023-05-03T18:10:05.741Z,15.20
2023-05-03T18:12:38.093Z,15.20
2023-05-03T18:15:11.543Z,15.10
2023-05-03T18:17:43.762Z,14.90
2023-05-03T18:20:16.216Z,14.80
2023-05-03T18:22:48.856Z,14.70
2023-05-03T18:25:20.979Z,14.70
2023-05-03T18:27:53.358Z,14.60
2023-05-03T18:30:28.406Z,14.50
2023-05-03T18:33:00.602Z,14.40
2023-05-03T18:35:32.705Z,14.30
2023-05-03T18:38:04.961Z,14.10
2023-05-03T18:40:37.099Z,14.00
2023-05-03T18:43:09.222Z,13.90
2023-05-03T18:45:42.068Z,13.80
2023-05-03T18:48:14.233Z,13.70
2023-05-03T18:50:46.345Z,13.60
2023-05-03T18:53:18.523Z,13.50
2023-05-03T18:56:04.043Z,13.40
2023-05-03T18:59:09.853Z,13.30
2023-05-03T19:01:49.589Z,13.10
2023-05-03T19:08:20.846Z,13.00
2023-05-03T19:11:14.700Z,12.90
2023-05-03T19:14:25.162Z,12.90
2023-05-03T19:17:17.544Z,12.70
2023-05-03T19:19:56.499Z,12.70
2023-05-03T19:23:04.900Z,12.60
2023-05-03T19:26:01.097Z,12.50
2023-05-03T19:28:52.441Z,12.40
2023-05-03T19:31:24.797Z,12.30
2023-05-03T19:33:57.204Z,12.20
2023-05-03T19:36:32.438Z,12.10
2023-05-03T19:39:08.154Z,12.20
2023-05-03T19:41:40.654Z,12.10
2023-05-03T19:44:13.647Z,12.00
2023-05-03T19:46:48.446Z,11.90
2023-05-03T19:49:40.536Z,11.90
2023-05-03T19:52:12.703Z,11.90
2023-05-03T19:55:06.503Z,11.80
2023-05-03T19:57:47.792Z,11.60
2023-05-03T20:00:23.865Z,11.60
2023-05-03T20:03:31.022Z,11.60
2023-05-03T20:06:17.086Z,11.50
2023-05-03T20:09:21.126Z,11.40
2023-05-03T20:12:22.041Z,11.30
2023-05-03T20:16:06.026Z,11.30
2023-05-03T20:19:17.596Z,11.20
2023-05-03T20:31:16.931Z,10.90
2023-05-03T20:34:05.648Z,10.80
2023-05-03T20:36:58.648Z,10.70
2023-05-03T20:39:51.175Z,10.70
2023-05-03T20:42:42.502Z,10.60
2023-05-03T20:45:39.611Z,10.60
2023-05-03T20:48:37.542Z,10.50
2023-05-03T20:51:44.482Z,10.40
2023-05-03T20:54:52.245Z,10.40
2023-05-03T20:57:35.162Z,10.40
2023-05-03T21:00:21.456Z,10.40
2023-05-03T21:03:09.912Z,10.30
2023-05-03T21:05:53.086Z,10.30
2023-05-03T21:08:40.971Z,10.20
2023-05-03T21:11:57.521Z,10.20
2023-05-03T21:14:32.227Z,10.10
2023-05-03T21:17:11.653Z,10.00
2023-05-03T21:19:55.320Z,10.00
2023-05-03T21:22:42.492Z,10.00
2023-05-03T21:25:17.474Z,9.90
2023-05-03T21:28:07.664Z,9.90
2023-05-03T21:30:46.394Z,9.90
2023-05-03T21:33:18.691Z,9.80
2023-05-03T21:35:54.473Z,9.80
2023-05-03T21:38:42.815Z,9.70
2023-05-03T21:41:30.068Z,9.70
2023-05-03T21:44:14.544Z,9.70
2023-05-03T21:47:28.407Z,9.60
2023-05-03T21:50:00.698Z,9.50
2023-05-03T21:52:49.286Z,9.50
2023-05-03T21:55:29.580Z,9.50
2023-05-03T21:58:01.968Z,9.40
2023-05-03T22:00:51.011Z,9.30
2023-05-03T22:03:42.268Z,9.30
2023-05-03T22:06:14.775Z,9.30
2023-05-03T22:08:59.114Z,9.30
2023-05-03T22:11:44.539Z,9.20
2023-05-03T22:15:16.210Z,9.20
2023-05-03T22:18:11.547Z,9.10
2023-05-03T22:21:11.052Z,9.00
2023-05-03T22:24:04.884Z,9.00
2023-05-03T22:26:42.648Z,8.90
2023-05-03T22:29:26.533Z,8.90
2023-05-03T22:32:08.070Z,8.90
2023-05-03T22:34:58.579Z,8.90
2023-05-03T22:37:30.757Z,8.80
2023-05-03T22:40:10.537Z,8.80
2023-05-03T22:42:47.813Z,8.80
2023-05-03T22:45:34.236Z,8.80
2023-05-03T22:48:18.378Z,8.70
2023-05-03T22:50:50.530Z,8.60
2023-05-03T22:53:22.735Z,8.60
2023-05-03T22:56:04.316Z,8.50
2023-05-03T22:58:36.507Z,8.50
2023-05-03T23:01:13.872Z,8.50
2023-05-03T23:03:46.634Z,8.40
2023-05-03T23:06:19.493Z,8.40
2023-05-03T23:08:52.129Z,8.40
2023-05-03T23:11:26.065Z,8.50
2023-05-03T23:13:58.159Z,8.40
2023-05-03T23:16:30.270Z,8.40
2023-05-03T23:19:02.360Z,8.40
2023-05-03T23:21:34.447Z,8.30
2023-05-03T23:24:07.354Z,8.30
2023-05-03T23:26:39.698Z,8.30
2023-05-03T23:29:12.268Z,8.30
2023-05-03T23:31:44.869Z,8.30
2023-05-03T23:34:18.729Z,8.20
2023-05-03T23:36:51.295Z,8.20
2023-05-03T23:39:23.302Z,8.00
2023-05-03T23:41:55.457Z,8.00
2023-05-03T23:44:38.490Z,8.00
2023-05-03T23:47:14.496Z,7.90
2023-05-03T23:49:46.799Z,7.90
2023-05-03T23:52:20.536Z,8.00
2023-05-03T23:55:00.888Z,7.90
2023-05-03T23:57:32.986Z,7.90
